Terminal Aerodrome Forecast
Issued by NWS Blacksburg, VA

Home | Current Version | Previous Version | Text Only | Print | Product List | Glossary On
Versions: 1 2 3 4 5 6 7 8 9 10 11 12
000
FTUS41 KRNK 191720
TAFBLF
TAF
KBLF 191720Z 1918/2018 05011KT P6SM SCT045 BKN150
     FM200400 12007KT P6SM BKN250
     FM201400 09006KT P6SM SKC=

USA.gov is the U.S. government's official web portal to all federal, state and local government web resources and services.